createdAt,value
2023-04-30T00:02:01.035Z,102171.22
2023-04-30T00:04:28.958Z,102181.00
2023-04-30T00:06:56.884Z,102182.88
2023-04-30T00:09:24.884Z,102186.56
2023-04-30T00:11:52.699Z,102181.84
2023-04-30T00:14:22.034Z,102179.38
2023-04-30T00:16:49.909Z,102185.53
2023-04-30T00:19:17.977Z,102186.34
2023-04-30T00:21:46.164Z,102189.84
2023-04-30T00:24:14.070Z,102193.50
2023-04-30T00:26:42.723Z,102191.56
2023-04-30T00:29:10.696Z,102193.59
2023-04-30T00:31:40.091Z,102198.81
2023-04-30T00:34:08.064Z,102198.81
2023-04-30T00:36:36.086Z,102197.25
2023-04-30T00:39:04.107Z,102201.78
2023-04-30T00:41:33.680Z,102206.00
2023-04-30T00:44:03.142Z,102198.25
2023-04-30T00:46:31.374Z,102211.63
2023-04-30T00:49:04.983Z,102209.03
2023-04-30T00:51:33.934Z,102201.94
2023-04-30T00:54:03.481Z,102218.72
2023-04-30T00:56:33.254Z,102217.09
2023-04-30T00:59:01.413Z,102219.06
2023-04-30T01:01:30.179Z,102218.09
2023-04-30T01:03:58.257Z,102217.38
2023-04-30T01:06:28.366Z,102225.41
2023-04-30T01:08:57.373Z,102229.16
2023-04-30T01:11:34.040Z,102226.22
2023-04-30T01:14:09.522Z,102230.59
2023-04-30T01:16:42.968Z,102226.25
2023-04-30T01:19:27.262Z,102223.66
2023-04-30T01:22:00.024Z,102227.16
2023-04-30T01:24:50.265Z,102235.91
2023-04-30T01:27:32.973Z,102237.03
2023-04-30T01:30:04.829Z,102239.78
2023-04-30T01:32:32.753Z,102227.63
2023-04-30T01:35:02.967Z,102224.03
2023-04-30T01:37:41.889Z,102229.16
2023-04-30T01:40:25.390Z,102231.81
2023-04-30T01:43:01.224Z,102230.00
2023-04-30T01:45:44.145Z,102227.38
2023-04-30T01:48:23.681Z,102231.81
2023-04-30T01:50:54.673Z,102231.75
2023-04-30T01:53:30.611Z,102244.06
2023-04-30T01:56:03.400Z,102242.38
2023-04-30T01:58:33.085Z,102253.84
2023-04-30T02:01:02.348Z,102249.50
2023-04-30T02:03:30.324Z,102239.31
2023-04-30T02:05:59.154Z,102250.72
2023-04-30T02:08:27.212Z,102260.50
2023-04-30T02:10:55.079Z,102255.19
2023-04-30T02:13:22.947Z,102260.50
2023-04-30T02:15:50.803Z,102257.91
2023-04-30T02:18:20.160Z,102259.53
2023-04-30T02:20:48.086Z,102266.47
2023-04-30T02:23:17.444Z,102262.03
2023-04-30T02:25:45.481Z,102268.28
2023-04-30T02:28:13.334Z,102262.84
2023-04-30T02:30:41.159Z,102266.66
2023-04-30T02:33:12.390Z,102265.91
2023-04-30T02:35:42.784Z,102272.06
2023-04-30T02:38:10.718Z,102267.59
2023-04-30T02:40:39.001Z,102270.38
2023-04-30T02:43:06.847Z,102273.91
2023-04-30T02:45:34.836Z,102275.78
2023-04-30T02:48:02.845Z,102277.44
2023-04-30T02:50:30.768Z,102273.91
2023-04-30T02:53:00.024Z,102279.19
2023-04-30T02:55:28.325Z,102277.50
2023-04-30T02:57:56.234Z,102278.44
2023-04-30T03:00:24.144Z,102278.38
2023-04-30T03:02:52.252Z,102273.88
2023-04-30T03:05:20.446Z,102265.97
2023-04-30T03:07:48.324Z,102273.03
2023-04-30T03:10:19.233Z,102275.78
2023-04-30T03:12:47.115Z,102273.13
2023-04-30T03:15:15.001Z,102279.34
2023-04-30T03:17:45.925Z,102275.72
2023-04-30T03:20:14.750Z,102276.63
2023-04-30T03:22:42.927Z,102275.03
2023-04-30T03:25:11.633Z,102281.34
2023-04-30T03:27:40.922Z,102293.75
2023-04-30T03:30:09.724Z,102292.84
2023-04-30T03:32:38.905Z,102287.53
2023-04-30T03:35:07.921Z,102290.19
2023-04-30T03:37:35.999Z,102287.53
2023-04-30T03:40:04.882Z,102284.00
2023-04-30T03:42:33.054Z,102288.34
2023-04-30T03:45:02.556Z,102290.81
2023-04-30T03:47:30.562Z,102296.03
2023-04-30T03:49:58.464Z,102293.34
2023-04-30T03:52:26.794Z,102303.19
2023-04-30T03:54:54.680Z,102299.63
2023-04-30T03:57:25.218Z,102299.78
2023-04-30T03:59:53.483Z,102301.47
2023-04-30T04:02:23.415Z,102293.50
2023-04-30T04:04:52.396Z,102302.19
2023-04-30T04:07:24.920Z,102304.75
2023-04-30T04:09:53.033Z,102306.66
2023-04-30T04:12:21.206Z,102302.28
2023-04-30T04:14:51.984Z,102310.22
2023-04-30T04:17:20.098Z,102308.28
2023-04-30T04:19:49.443Z,102310.00
2023-04-30T04:22:17.471Z,102303.84
2023-04-30T04:24:45.788Z,102306.38
2023-04-30T04:27:13.642Z,102317.97
2023-04-30T04:29:41.701Z,102303.84
2023-04-30T04:32:10.322Z,102317.84
2023-04-30T04:34:38.781Z,102320.53
2023-04-30T04:37:08.584Z,102323.19
2023-04-30T04:39:37.309Z,102324.78
2023-04-30T04:42:05.522Z,102323.09
2023-04-30T04:44:33.720Z,102329.28
2023-04-30T04:47:03.620Z,102327.44
2023-04-30T04:49:31.516Z,102327.28
2023-04-30T04:51:59.705Z,102338.59
2023-04-30T04:54:29.253Z,102337.75
2023-04-30T04:56:57.519Z,102338.59
2023-04-30T04:59:25.423Z,102340.25
2023-04-30T05:01:53.440Z,102337.69
2023-04-30T05:04:21.525Z,102349.88
2023-04-30T05:06:49.400Z,102348.00
2023-04-30T05:09:17.592Z,102352.38
2023-04-30T05:11:49.058Z,102356.66
2023-04-30T05:14:16.938Z,102355.59
2023-04-30T05:16:44.936Z,102363.38
2023-04-30T05:19:13.029Z,102364.84
2023-04-30T05:21:40.952Z,102370.19
2023-04-30T05:24:09.110Z,102376.31
2023-04-30T05:26:37.079Z,102372.47
2023-04-30T05:29:06.382Z,102370.44
2023-04-30T05:31:34.327Z,102378.38
2023-04-30T05:34:02.267Z,102372.84
2023-04-30T05:36:30.290Z,102369.19
2023-04-30T05:38:58.131Z,102379.78
2023-04-30T05:41:26.816Z,102374.22
2023-04-30T05:43:54.688Z,102380.47
2023-04-30T05:46:23.951Z,102375.19
2023-04-30T05:48:51.969Z,102378.63
2023-04-30T05:51:19.796Z,102367.84
2023-04-30T05:53:47.753Z,102372.72
2023-04-30T05:56:15.958Z,102381.22
2023-04-30T05:58:44.435Z,102372.47
2023-04-30T06:01:12.445Z,102380.16
2023-04-30T06:03:45.044Z,102390.47
2023-04-30T06:06:12.937Z,102396.69
2023-04-30T06:08:42.240Z,102391.03
2023-04-30T06:11:10.284Z,102392.44
2023-04-30T06:13:46.763Z,102386.97
2023-04-30T06:16:14.884Z,102385.81
2023-04-30T06:18:44.368Z,102385.72
2023-04-30T06:21:12.616Z,102394.47
2023-04-30T06:23:41.657Z,102397.31
2023-04-30T06:26:09.937Z,102393.19
2023-04-30T06:28:37.769Z,102395.75
2023-04-30T06:31:05.885Z,102401.59
2023-04-30T06:33:33.751Z,102404.28
2023-04-30T06:36:03.189Z,102406.69
2023-04-30T06:38:38.637Z,102418.69
2023-04-30T06:41:06.682Z,102412.47
2023-04-30T06:43:34.729Z,102417.63
2023-04-30T06:46:02.729Z,102412.03
2023-04-30T06:48:30.685Z,102411.22
2023-04-30T06:50:58.798Z,102414.41
2023-04-30T06:53:28.242Z,102397.91
2023-04-30T06:55:56.620Z,102396.72
2023-04-30T06:58:24.526Z,102395.75
2023-04-30T07:00:52.593Z,102398.63
2023-04-30T07:03:20.535Z,102404.22
2023-04-30T07:05:48.586Z,102401.59
2023-04-30T07:08:16.626Z,102404.38
2023-04-30T07:10:45.901Z,102396.56
2023-04-30T07:13:13.802Z,102409.84
2023-04-30T07:15:42.306Z,102406.50
2023-04-30T07:18:10.463Z,102413.38
2023-04-30T07:20:38.562Z,102408.69
2023-04-30T07:23:06.448Z,102399.72
2023-04-30T07:25:34.326Z,102401.00
2023-04-30T07:28:03.581Z,102393.06
2023-04-30T07:30:31.681Z,102401.94
2023-04-30T07:32:59.563Z,102402.84
2023-04-30T07:35:27.554Z,102397.72
2023-04-30T07:37:55.540Z,102406.50
2023-04-30T07:40:34.922Z,102397.91
2023-04-30T07:43:05.823Z,102396.47
2023-04-30T07:45:34.822Z,102403.13
2023-04-30T07:48:03.033Z,102413.44
2023-04-30T07:50:34.002Z,102399.97
2023-04-30T07:53:02.945Z,102415.06
2023-04-30T07:55:31.273Z,102421.13
2023-04-30T07:57:59.718Z,102427.03
2023-04-30T08:00:29.601Z,102425.41
2023-04-30T08:02:57.496Z,102431.13
2023-04-30T08:05:25.717Z,102420.19
2023-04-30T08:07:53.637Z,102419.75
2023-04-30T08:10:21.668Z,102423.00
2023-04-30T08:12:50.591Z,102415.84
2023-04-30T08:15:19.259Z,102413.59
2023-04-30T08:17:50.236Z,102419.72
2023-04-30T08:20:18.384Z,102421.81
2023-04-30T08:22:46.825Z,102407.81
2023-04-30T08:25:15.067Z,102413.72
2023-04-30T08:27:42.926Z,102420.19
2023-04-30T08:30:11.337Z,102425.03
2023-04-30T08:32:39.601Z,102422.63
2023-04-30T08:35:10.745Z,102423.25
2023-04-30T08:37:38.769Z,102424.25
2023-04-30T08:40:09.850Z,102418.28
2023-04-30T08:42:40.973Z,102411.94
2023-04-30T08:45:12.958Z,102415.28
2023-04-30T08:47:41.872Z,102409.00
2023-04-30T08:50:11.720Z,102406.63
2023-04-30T08:52:41.451Z,102416.84
2023-04-30T08:55:11.310Z,102416.31
2023-04-30T08:57:39.556Z,102414.41
2023-04-30T09:00:09.699Z,102419.19
2023-04-30T09:02:42.162Z,102426.28
2023-04-30T09:05:14.223Z,102428.00
2023-04-30T09:07:48.971Z,102426.34
2023-04-30T09:10:24.208Z,102425.31
2023-04-30T09:13:01.654Z,102417.94
2023-04-30T09:15:30.142Z,102415.88
2023-04-30T09:18:13.036Z,102417.41
2023-04-30T09:20:56.744Z,102419.28
2023-04-30T09:23:25.391Z,102423.69
2023-04-30T09:25:53.418Z,102421.78
2023-04-30T09:28:24.632Z,102412.16
2023-04-30T09:30:53.080Z,102421.69
2023-04-30T09:33:21.433Z,102419.22
2023-04-30T09:35:50.871Z,102421.75
2023-04-30T09:38:29.536Z,102415.72
2023-04-30T09:41:00.070Z,102415.91
2023-04-30T09:43:28.447Z,102413.94
2023-04-30T09:45:58.737Z,102412.81
2023-04-30T09:48:28.379Z,102403.22
2023-04-30T09:50:57.869Z,102417.38
2023-04-30T09:53:25.767Z,102406.19
2023-04-30T09:55:54.524Z,102406.22
2023-04-30T09:58:25.873Z,102392.25
2023-04-30T10:00:57.040Z,102396.38
2023-04-30T10:03:25.359Z,102389.88
2023-04-30T10:05:54.072Z,102401.47
2023-04-30T10:08:28.383Z,102394.75
2023-04-30T10:11:01.387Z,102386.50
2023-04-30T10:13:32.754Z,102381.63
2023-04-30T10:16:05.981Z,102380.53
2023-04-30T10:18:36.693Z,102391.56
2023-04-30T10:21:10.261Z,102392.69
2023-04-30T10:23:42.271Z,102385.91
2023-04-30T10:26:12.301Z,102377.00
2023-04-30T10:28:40.923Z,102379.81
2023-04-30T10:31:11.617Z,102375.31
2023-04-30T10:33:50.001Z,102381.56
2023-04-30T10:36:27.952Z,102381.34
2023-04-30T10:38:58.016Z,102381.56
2023-04-30T10:41:28.331Z,102373.94
2023-04-30T10:44:01.185Z,102364.22
2023-04-30T10:46:30.127Z,102367.78
2023-04-30T10:48:58.526Z,102365.78
2023-04-30T10:51:46.395Z,102367.38
2023-04-30T10:54:18.806Z,102357.91
2023-04-30T10:56:48.635Z,102354.84
2023-04-30T10:59:16.752Z,102354.88
2023-04-30T11:01:58.731Z,102349.47
2023-04-30T11:04:27.498Z,102347.06
2023-04-30T11:07:14.550Z,102345.44
2023-04-30T11:09:46.120Z,102359.97
2023-04-30T11:12:16.248Z,102350.03
2023-04-30T11:14:46.055Z,102344.56
2023-04-30T11:17:22.484Z,102340.56
2023-04-30T11:19:52.279Z,102341.66
2023-04-30T11:22:23.393Z,102340.53
2023-04-30T11:25:05.004Z,102336.00
2023-04-30T11:27:34.659Z,102344.94
2023-04-30T11:30:04.924Z,102345.13
2023-04-30T11:32:37.861Z,102333.00
2023-04-30T11:35:07.428Z,102337.22
2023-04-30T11:37:37.793Z,102342.59
2023-04-30T11:40:11.093Z,102337.44
2023-04-30T11:42:41.191Z,102331.28
2023-04-30T11:45:12.788Z,102329.28
2023-04-30T11:47:42.551Z,102327.25
2023-04-30T11:50:11.949Z,102322.78
2023-04-30T11:52:40.494Z,102326.75
2023-04-30T11:55:15.330Z,102327.72
2023-04-30T11:57:44.356Z,102330.31
2023-04-30T12:00:14.471Z,102324.47
2023-04-30T12:02:43.634Z,102314.72
2023-04-30T12:05:17.139Z,102319.16
2023-04-30T12:07:49.862Z,102317.34
2023-04-30T12:10:20.679Z,102313.56
2023-04-30T12:12:51.212Z,102315.25
2023-04-30T12:15:23.236Z,102305.78
2023-04-30T12:17:51.346Z,102302.06
2023-04-30T12:20:19.851Z,102298.88
2023-04-30T12:22:48.030Z,102304.56
2023-04-30T12:25:19.675Z,102303.84
2023-04-30T12:27:49.729Z,102293.72
2023-04-30T12:30:21.460Z,102299.53
2023-04-30T12:32:51.808Z,102305.00
2023-04-30T12:35:21.113Z,102299.91
2023-04-30T12:37:51.346Z,102290.06
2023-04-30T12:40:21.999Z,102288.59
2023-04-30T12:42:50.047Z,102288.13
2023-04-30T12:45:45.580Z,102295.44
2023-04-30T12:48:14.980Z,102293.66
2023-04-30T12:50:43.295Z,102285.25
2023-04-30T12:53:11.805Z,102277.41
2023-04-30T12:55:42.243Z,102273.88
2023-04-30T12:58:11.788Z,102271.97
2023-04-30T13:00:47.624Z,102270.03
2023-04-30T13:03:16.897Z,102267.81
2023-04-30T13:05:48.552Z,102262.84
2023-04-30T13:08:16.966Z,102270.25
2023-04-30T13:10:52.115Z,102267.16
2023-04-30T13:13:21.498Z,102256.81
2023-04-30T13:15:49.459Z,102261.69
2023-04-30T13:18:17.432Z,102264.31
2023-04-30T13:20:48.268Z,102258.94
2023-04-30T13:23:16.139Z,102249.59
2023-04-30T13:25:44.146Z,102247.94
2023-04-30T13:28:13.525Z,102242.97
2023-04-30T13:30:42.060Z,102244.59
2023-04-30T13:33:10.275Z,102242.59
2023-04-30T13:35:38.316Z,102240.66
2023-04-30T13:38:07.498Z,102239.38
2023-04-30T13:40:35.774Z,102227.34
2023-04-30T13:43:05.310Z,102231.69
2023-04-30T13:45:36.145Z,102222.66
2023-04-30T13:48:05.905Z,102219.84
2023-04-30T13:50:33.836Z,102222.00
2023-04-30T13:53:01.703Z,102221.59
2023-04-30T13:55:29.730Z,102216.88
2023-04-30T13:57:58.667Z,102216.19
2023-04-30T14:00:26.780Z,102210.06
2023-04-30T14:02:56.294Z,102214.75
2023-04-30T14:05:24.268Z,102207.34
2023-04-30T14:07:52.448Z,102205.00
2023-04-30T14:10:20.610Z,102207.19
2023-04-30T14:12:48.912Z,102206.25
2023-04-30T14:15:17.025Z,102195.63
2023-04-30T14:17:45.313Z,102190.75
2023-04-30T14:20:15.319Z,102192.69
2023-04-30T14:22:43.441Z,102190.84
2023-04-30T14:25:12.815Z,102192.38
2023-04-30T14:27:41.554Z,102181.59
2023-04-30T14:30:10.495Z,102184.53
2023-04-30T14:32:38.722Z,102174.13
2023-04-30T14:35:07.846Z,102178.91
2023-04-30T14:37:37.617Z,102179.97
2023-04-30T14:40:12.232Z,102172.59
2023-04-30T14:42:40.321Z,102175.44
2023-04-30T14:45:11.176Z,102173.41
2023-04-30T14:47:39.541Z,102170.41
2023-04-30T14:50:08.201Z,102167.97
2023-04-30T14:52:37.742Z,102172.63
2023-04-30T14:55:06.735Z,102172.19
2023-04-30T14:57:35.117Z,102166.56
2023-04-30T15:00:07.769Z,102165.06
2023-04-30T15:02:36.144Z,102162.97
2023-04-30T15:05:05.700Z,102155.69
2023-04-30T15:07:33.747Z,102154.63
2023-04-30T15:10:03.153Z,102154.72
2023-04-30T15:12:31.334Z,102160.47
2023-04-30T15:14:59.422Z,102157.69
2023-04-30T15:17:27.466Z,102154.31
2023-04-30T15:19:56.309Z,102155.50
2023-04-30T15:22:25.026Z,102150.00
2023-04-30T15:24:54.104Z,102143.25
2023-04-30T15:27:24.029Z,102134.84
2023-04-30T15:29:53.696Z,102135.63
2023-04-30T15:32:22.014Z,102138.78
2023-04-30T15:34:49.945Z,102137.72
2023-04-30T15:37:22.446Z,102137.88
2023-04-30T15:39:53.935Z,102133.09
2023-04-30T15:42:23.263Z,102140.09
2023-04-30T15:44:52.411Z,102132.78
2023-04-30T15:47:22.429Z,102133.47
2023-04-30T15:49:54.167Z,102127.63
2023-04-30T15:52:22.319Z,102127.28
2023-04-30T15:54:52.087Z,102132.84
2023-04-30T15:57:20.337Z,102129.19
2023-04-30T15:59:49.720Z,102120.41
2023-04-30T16:02:17.653Z,102118.31
2023-04-30T16:04:45.901Z,102115.53
2023-04-30T16:07:13.921Z,102110.47
2023-04-30T16:09:46.275Z,102114.09
2023-04-30T16:12:14.190Z,102114.97
2023-04-30T16:14:42.283Z,102106.84
2023-04-30T16:17:11.637Z,102103.91
2023-04-30T16:19:39.534Z,102109.53
2023-04-30T16:22:09.002Z,102101.94
2023-04-30T16:24:36.971Z,102106.56
2023-04-30T16:27:04.969Z,102099.91
2023-04-30T16:29:32.802Z,102091.50
2023-04-30T16:32:00.769Z,102094.19
2023-04-30T16:34:30.064Z,102098.25
2023-04-30T16:36:57.975Z,102091.13
2023-04-30T16:39:26.012Z,102095.34
2023-04-30T16:41:54.271Z,102087.00
2023-04-30T16:44:22.548Z,102083.28
2023-04-30T16:46:51.329Z,102080.69
2023-04-30T16:49:19.165Z,102077.16
2023-04-30T16:51:48.474Z,102076.97
2023-04-30T16:54:16.621Z,102074.44
2023-04-30T16:56:44.866Z,102074.13
2023-04-30T16:59:12.891Z,102074.44
2023-04-30T17:01:40.842Z,102073.31
2023-04-30T17:04:08.724Z,102074.19
2023-04-30T17:06:36.882Z,102069.47
2023-04-30T17:09:06.708Z,102066.22
2023-04-30T17:11:35.071Z,102064.31
2023-04-30T17:14:03.093Z,102063.53
2023-04-30T17:16:31.219Z,102063.34
2023-04-30T17:18:59.150Z,102058.38
2023-04-30T17:21:29.821Z,102058.97
2023-04-30T17:23:58.560Z,102067.81
2023-04-30T17:26:27.785Z,102069.53
2023-04-30T17:28:55.594Z,102060.41
2023-04-30T17:31:24.159Z,102061.66
2023-04-30T17:33:52.404Z,102060.88
2023-04-30T17:36:20.387Z,102049.63
2023-04-30T17:38:48.406Z,102061.66
2023-04-30T17:41:18.433Z,102065.69
2023-04-30T17:43:47.776Z,102053.47
2023-04-30T17:46:15.874Z,102049.25
2023-04-30T17:48:43.731Z,102051.00
2023-04-30T17:51:11.632Z,102054.44
2023-04-30T17:53:39.612Z,102057.03
2023-04-30T17:56:08.848Z,102050.78
2023-04-30T17:58:38.436Z,102057.59
2023-04-30T18:01:09.198Z,102054.34
2023-04-30T18:03:37.386Z,102061.47
2023-04-30T18:06:05.446Z,102059.94
2023-04-30T18:08:34.123Z,102058.38
2023-04-30T18:11:03.329Z,102061.28
2023-04-30T18:13:31.567Z,102067.59
2023-04-30T18:15:59.685Z,102060.88
2023-04-30T18:18:29.350Z,102058.38
2023-04-30T18:20:57.427Z,102060.75
2023-04-30T18:23:26.826Z,102063.81
2023-04-30T18:25:54.728Z,102058.53
2023-04-30T18:28:24.680Z,102065.72
2023-04-30T18:30:53.475Z,102070.50
2023-04-30T18:33:21.396Z,102067.16
2023-04-30T18:35:52.264Z,102063.00
2023-04-30T18:38:20.737Z,102065.97
2023-04-30T18:40:48.600Z,102074.38
2023-04-30T18:43:16.942Z,102072.84
2023-04-30T18:45:45.033Z,102068.06
2023-04-30T18:48:15.167Z,102078.41
2023-04-30T18:50:43.422Z,102074.66
2023-04-30T18:53:13.668Z,102066.78
2023-04-30T18:55:42.690Z,102069.66
2023-04-30T18:58:10.478Z,102072.50
2023-04-30T19:00:38.396Z,102076.41
2023-04-30T19:03:06.409Z,102079.44
2023-04-30T19:05:35.788Z,102083.09
2023-04-30T19:08:04.329Z,102079.97
2023-04-30T19:10:35.017Z,102077.47
2023-04-30T19:13:02.853Z,102081.28
2023-04-30T19:15:30.903Z,102081.81
2023-04-30T19:17:58.995Z,102090.03
2023-04-30T19:20:27.242Z,102085.78
2023-04-30T19:22:55.153Z,102079.63
2023-04-30T19:25:23.496Z,102079.63
2023-04-30T19:27:53.736Z,102084.41
2023-04-30T19:30:21.800Z,102083.63
2023-04-30T19:32:49.688Z,102085.75
2023-04-30T19:35:17.682Z,102084.38
2023-04-30T19:37:45.721Z,102090.94
2023-04-30T19:40:14.832Z,102090.44
2023-04-30T19:42:42.732Z,102095.16
2023-04-30T19:45:13.182Z,102097.06
2023-04-30T19:47:41.099Z,102095.56
2023-04-30T19:50:10.160Z,102092.50
2023-04-30T19:52:38.158Z,102095.19
2023-04-30T19:55:06.734Z,102099.66
2023-04-30T19:57:35.908Z,102096.47
2023-04-30T20:00:06.457Z,102094.97
2023-04-30T20:02:36.048Z,102090.63
2023-04-30T20:05:06.466Z,102086.28
2023-04-30T20:07:35.108Z,102087.25
2023-04-30T20:10:03.040Z,102084.88
2023-04-30T20:12:30.945Z,102090.94
2023-04-30T20:14:58.819Z,102088.66
2023-04-30T20:17:26.689Z,102082.78
2023-04-30T20:19:56.236Z,102092.78
2023-04-30T20:22:25.361Z,102087.75
2023-04-30T20:24:56.501Z,102089.22
2023-04-30T20:27:25.780Z,102083.41
2023-04-30T20:29:54.138Z,102080.75
2023-04-30T20:32:22.542Z,102082.75
2023-04-30T20:34:51.260Z,102083.84
2023-04-30T20:37:20.636Z,102088.38
2023-04-30T20:39:48.547Z,102079.94
2023-04-30T20:42:16.531Z,102074.75
2023-04-30T20:44:44.414Z,102076.75
2023-04-30T20:47:14.338Z,102074.09
2023-04-30T20:49:43.601Z,102073.00
2023-04-30T20:52:12.154Z,102077.84
2023-04-30T20:54:45.198Z,102078.97
2023-04-30T20:57:19.737Z,102075.50
2023-04-30T20:59:47.646Z,102067.84
2023-04-30T21:02:15.728Z,102065.25
2023-04-30T21:04:44.384Z,102070.53
2023-04-30T21:07:12.971Z,102059.03
2023-04-30T21:09:42.912Z,102060.16
2023-04-30T21:12:11.769Z,102053.31
2023-04-30T21:14:54.653Z,102058.72
2023-04-30T21:17:23.382Z,102053.84
2023-04-30T21:19:51.707Z,102057.72
2023-04-30T21:22:20.664Z,102064.91
2023-04-30T21:24:50.040Z,102059.91
2023-04-30T21:27:18.082Z,102057.38
2023-04-30T21:29:46.011Z,102060.03
2023-04-30T21:32:14.264Z,102056.44
2023-04-30T21:34:44.060Z,102059.28
2023-04-30T21:37:12.197Z,102056.63
2023-04-30T21:39:40.272Z,102060.22
2023-04-30T21:42:09.750Z,102053.41
2023-04-30T21:44:37.980Z,102056.75
2023-04-30T21:47:08.284Z,102055.44
2023-04-30T21:49:36.992Z,102045.97
2023-04-30T21:52:08.123Z,102050.38
2023-04-30T21:54:36.121Z,102050.09
2023-04-30T21:57:04.061Z,102044.75
2023-04-30T21:59:35.286Z,102041.00
2023-04-30T22:02:16.507Z,102042.94
2023-04-30T22:04:51.406Z,102036.81
2023-04-30T22:07:19.316Z,102037.66
2023-04-30T22:09:47.531Z,102038.72
2023-04-30T22:12:19.317Z,102039.03
2023-04-30T22:14:50.236Z,102035.13
2023-04-30T22:17:18.176Z,102037.44
2023-04-30T22:19:46.284Z,102021.38
2023-04-30T22:22:14.366Z,102023.19
2023-04-30T22:24:42.237Z,102025.66
2023-04-30T22:27:12.780Z,102021.47
2023-04-30T22:29:41.217Z,102015.84
2023-04-30T22:32:11.631Z,102021.41
2023-04-30T22:34:42.285Z,102018.22
2023-04-30T22:37:11.731Z,102017.19
2023-04-30T22:39:40.324Z,102017.66
2023-04-30T22:42:10.452Z,102018.06
2023-04-30T22:44:38.948Z,102021.03
2023-04-30T22:47:07.155Z,102014.53
2023-04-30T22:49:39.982Z,102018.94
2023-04-30T22:52:08.383Z,102009.25
2023-04-30T22:54:36.426Z,102001.38
2023-04-30T22:57:04.722Z,102006.31
2023-04-30T22:59:33.402Z,101997.91
2023-04-30T23:02:01.483Z,101988.66
2023-04-30T23:04:32.340Z,101991.47
2023-04-30T23:07:02.332Z,101988.16
2023-04-30T23:09:30.268Z,101996.63
2023-04-30T23:11:58.477Z,101990.94
2023-04-30T23:14:26.668Z,101997.72
2023-04-30T23:16:56.553Z,101983.84
2023-04-30T23:19:26.044Z,101994.25
2023-04-30T23:21:54.057Z,101989.19
2023-04-30T23:24:23.273Z,101988.06
2023-04-30T23:26:51.414Z,101985.03
2023-04-30T23:29:19.799Z,101981.28
2023-04-30T23:31:48.234Z,101981.13
2023-04-30T23:34:16.143Z,101977.78
2023-04-30T23:36:44.113Z,101984.25
2023-04-30T23:39:11.937Z,101976.34
2023-04-30T23:41:41.292Z,101976.47
2023-04-30T23:44:09.486Z,101978.19
2023-04-30T23:46:37.450Z,101968.66
2023-04-30T23:49:05.486Z,101960.94
2023-04-30T23:51:34.034Z,101960.94
2023-04-30T23:54:01.931Z,101965.88
2023-04-30T23:56:29.806Z,101959.50
2023-04-30T23:58:59.217Z,101957.50
